Time;durP1;ratioP1;P1;durP2;ratioP2;P2;SDS_P1;SDS_P2;PMS_P1;PMS_P2;Temp;Humidity;BMP_temperature;BMP_pressure;BME280_temperature;BME280_humidity;BME280_pressure;Samples;Min_cycle;Max_cycle;Signal;HPM_P1;HPM_P2
2023/01/24 00:01:40;;;;;;;12.23;7.70;;;1.40;99.90;;;;;;5032830;28;20297;-82
2023/01/24 00:04:05;;;;;;;12.97;8.07;;;1.40;99.90;;;;;;5033057;28;20226;-82
2023/01/24 00:06:31;;;;;;;11.30;7.23;;;1.30;99.90;;;;;;5035204;28;20631;-82
2023/01/24 00:08:56;;;;;;;12.20;7.33;;;1.40;99.90;;;;;;5034703;28;20185;-81
2023/01/24 00:11:22;;;;;;;12.17;7.03;;;1.40;99.90;;;;;;5033430;28;20204;-82
2023/01/24 00:13:47;;;;;;;10.90;6.43;;;1.40;99.90;;;;;;5033680;28;20182;-83
2023/01/24 00:16:21;;;;;;;11.63;7.37;;;1.40;99.90;;;;;;5034012;28;20210;-83
2023/01/24 00:18:47;;;;;;;11.33;7.07;;;1.30;99.90;;;;;;5033597;28;20189;-82
2023/01/24 00:21:16;;;;;;;13.57;7.53;;;1.30;99.90;;;;;;5033635;28;20216;-83
2023/01/24 00:23:44;;;;;;;10.67;6.37;;;1.30;99.90;;;;;;5033304;28;20248;-83
2023/01/24 00:26:10;;;;;;;12.63;7.03;;;1.30;99.90;;;;;;5035435;28;20175;-82
2023/01/24 00:28:36;;;;;;;12.03;7.37;;;1.30;99.90;;;;;;5035576;28;20170;-82
2023/01/24 00:31:02;;;;;;;12.47;7.17;;;1.30;99.90;;;;;;5036647;28;20695;-82
2023/01/24 00:33:28;;;;;;;12.87;7.73;;;1.30;99.90;;;;;;5036201;28;20652;-84
2023/01/24 00:35:54;;;;;;;12.40;6.87;;;1.30;99.90;;;;;;5036241;28;20301;-82
2023/01/24 00:38:20;;;;;;;12.83;7.10;;;1.30;99.90;;;;;;5036713;28;20193;-82
2023/01/24 00:40:47;;;;;;;12.60;7.50;;;1.30;99.90;;;;;;5036109;28;20202;-82
2023/01/24 00:43:12;;;;;;;12.20;7.03;;;1.30;99.90;;;;;;5034500;28;20260;-83
2023/01/24 00:45:39;;;;;;;12.60;7.50;;;1.30;99.90;;;;;;5035105;28;20708;-82
2023/01/24 00:48:06;;;;;;;12.23;7.60;;;1.20;99.90;;;;;;5037376;28;20530;-83
2023/01/24 00:50:32;;;;;;;12.10;7.27;;;1.20;99.90;;;;;;5036238;28;20193;-82
2023/01/24 00:52:57;;;;;;;12.87;8.10;;;1.20;99.90;;;;;;5035892;28;20174;-83
2023/01/24 00:55:23;;;;;;;12.43;6.93;;;1.10;99.90;;;;;;5036238;28;20664;-82
2023/01/24 00:57:49;;;;;;;12.77;7.77;;;1.10;99.90;;;;;;5035899;28;20174;-82
2023/01/24 01:00:15;;;;;;;12.97;7.47;;;1.20;99.90;;;;;;5037703;28;20770;-82
2023/01/24 01:02:40;;;;;;;10.93;7.47;;;1.20;99.90;;;;;;5037180;28;20177;-83
2023/01/24 01:05:06;;;;;;;12.00;7.30;;;1.20;99.90;;;;;;5037164;28;20247;-84
2023/01/24 01:07:32;;;;;;;12.13;7.60;;;1.20;99.90;;;;;;5037360;28;20181;-82
2023/01/24 01:09:57;;;;;;;12.93;8.00;;;1.20;99.90;;;;;;5038998;28;20174;-83
2023/01/24 01:12:23;;;;;;;13.10;7.87;;;1.20;99.90;;;;;;5038070;28;20209;-82
2023/01/24 01:14:49;;;;;;;15.77;8.47;;;1.20;99.90;;;;;;5038611;28;20209;-83
2023/01/24 01:17:15;;;;;;;12.97;7.53;;;1.30;99.90;;;;;;5039099;28;20189;-83
2023/01/24 01:19:41;;;;;;;13.13;7.63;;;1.30;99.90;;;;;;5041318;28;20250;-83
2023/01/24 01:22:07;;;;;;;11.83;7.20;;;1.30;99.90;;;;;;5039402;28;20714;-84
2023/01/24 01:24:32;;;;;;;11.63;7.33;;;1.30;99.90;;;;;;5041500;28;20553;-85
2023/01/24 01:26:59;;;;;;;13.30;8.27;;;1.30;99.90;;;;;;5042139;28;20170;-83
2023/01/24 01:29:25;;;;;;;12.43;7.40;;;1.30;99.90;;;;;;5040625;28;20193;-85
2023/01/24 01:31:50;;;;;;;12.33;7.93;;;1.30;99.90;;;;;;5040692;28;20548;-83
2023/01/24 01:34:16;;;;;;;11.90;7.90;;;1.20;99.90;;;;;;5042545;28;20619;-82
2023/01/24 01:36:42;;;;;;;12.77;8.27;;;1.30;99.90;;;;;;5041763;28;20170;-83
2023/01/24 01:39:07;;;;;;;13.73;8.20;;;1.30;99.90;;;;;;5042950;28;20182;-83
2023/01/24 01:41:33;;;;;;;13.77;8.07;;;1.30;99.90;;;;;;5042590;28;20212;-85
2023/01/24 01:44:43;;;;;;;13.50;8.07;;;1.30;99.90;;;;;;5043775;28;20661;-84
2023/01/24 01:47:23;;;;;;;13.83;7.83;;;1.20;99.90;;;;;;5045123;28;20182;-83
2023/01/24 01:50:01;;;;;;;12.93;8.20;;;1.30;99.90;;;;;;5044463;28;20245;-84
2023/01/24 01:52:37;;;;;;;13.70;8.13;;;1.30;99.90;;;;;;5049676;28;20182;-83
2023/01/24 01:55:09;;;;;;;12.23;7.53;;;1.20;99.90;;;;;;5049370;28;20194;-83
2023/01/24 01:57:36;;;;;;;14.30;8.00;;;1.20;99.90;;;;;;5051408;28;20201;-83
2023/01/24 02:00:11;;;;;;;12.00;7.67;;;1.20;99.90;;;;;;5040153;28;20274;-82
2023/01/24 02:02:39;;;;;;;12.77;7.83;;;1.20;99.90;;;;;;5035855;28;20189;-83
2023/01/24 02:05:07;;;;;;;13.70;7.67;;;1.20;99.90;;;;;;5035514;28;20248;-82
2023/01/24 02:07:45;;;;;;;13.90;8.07;;;1.20;99.90;;;;;;5034729;28;20181;-82
2023/01/24 02:10:11;;;;;;;12.37;7.43;;;1.20;99.90;;;;;;5035944;28;20170;-82
2023/01/24 02:12:44;;;;;;;13.00;8.10;;;1.10;99.90;;;;;;5036142;28;20723;-82
2023/01/24 02:18:00;;;;;;;16.17;8.53;;;1.20;99.90;;;;;;5036052;28;20177;-82
2023/01/24 02:20:34;;;;;;;15.13;8.30;;;1.20;99.90;;;;;;5034076;28;20202;-82
2023/01/24 02:23:08;;;;;;;12.60;8.03;;;1.20;99.90;;;;;;5034336;28;20169;-82
2023/01/24 02:26:02;;;;;;;14.23;7.97;;;1.10;99.90;;;;;;5034312;28;20216;-82
2023/01/24 02:28:27;;;;;;;12.87;7.67;;;1.10;99.90;;;;;;5034455;28;20202;-82
2023/01/24 02:30:57;;;;;;;14.70;8.23;;;1.20;99.90;;;;;;5034666;28;20209;-83
2023/01/24 02:33:22;;;;;;;12.00;7.40;;;1.10;99.90;;;;;;5034193;28;20266;-82
2023/01/24 02:35:48;;;;;;;15.83;8.70;;;1.10;99.90;;;;;;5072505;22;20315;-86
2023/01/24 02:38:25;;;;;;;16.33;8.67;;;1.10;99.90;;;;;;5054247;28;20166;-85
2023/01/24 02:40:55;;;;;;;14.73;8.23;;;1.10;99.90;;;;;;5053002;28;20294;-85
2023/01/24 02:43:26;;;;;;;12.77;8.30;;;1.10;99.90;;;;;;5054435;28;20201;-85
2023/01/24 02:45:52;;;;;;;13.13;7.00;;;1.10;99.90;;;;;;5053015;28;20288;-85
2023/01/24 02:48:17;;;;;;;13.43;7.77;;;1.10;99.90;;;;;;5053013;28;20403;-85
2023/01/24 02:53:30;;;;;;;12.37;6.83;;;1.10;99.90;;;;;;5054545;28;20180;-85
2023/01/24 02:58:49;;;;;;;11.93;7.13;;;1.10;99.90;;;;;;5054304;28;20177;-85
2023/01/24 03:01:15;;;;;;;15.47;7.60;;;1.10;99.90;;;;;;5054024;28;20193;-85
2023/01/24 03:03:45;;;;;;;12.83;7.57;;;1.10;99.90;;;;;;5053435;28;20173;-85
2023/01/24 03:06:11;;;;;;;12.70;7.27;;;1.10;99.90;;;;;;5052793;28;20238;-86
2023/01/24 03:08:38;;;;;;;11.03;6.90;;;1.10;99.90;;;;;;5053819;28;20535;-85
2023/01/24 03:11:04;;;;;;;10.43;6.43;;;1.10;99.90;;;;;;5052677;28;20212;-85
2023/01/24 03:35:24;;;;;;;10.40;5.80;;;1.10;99.90;;;;;;5053343;28;20215;-86
2023/01/24 03:40:35;;;;;;;9.60;5.60;;;1.10;99.90;;;;;;5053231;28;20239;-85
2023/01/24 03:43:01;;;;;;;9.23;5.90;;;1.10;99.90;;;;;;5052005;28;20181;-85
2023/01/24 03:45:32;;;;;;;10.20;6.27;;;1.10;99.90;;;;;;5052078;28;20683;-85
2023/01/24 03:48:04;;;;;;;9.73;5.87;;;1.10;99.90;;;;;;5053234;28;20557;-86
2023/01/24 03:53:21;;;;;;;9.50;5.97;;;1.20;99.90;;;;;;5053193;28;20678;-85
2023/01/24 03:55:54;;;;;;;10.33;5.90;;;1.20;99.90;;;;;;5052934;28;20194;-85
2023/01/24 03:58:20;;;;;;;9.13;5.73;;;1.10;99.90;;;;;;5053176;28;20166;-85
2023/01/24 04:00:46;;;;;;;9.20;5.53;;;1.10;99.90;;;;;;5051464;28;20204;-85
2023/01/24 04:03:12;;;;;;;9.17;5.83;;;1.00;99.90;;;;;;5052797;28;20173;-85
2023/01/24 04:05:37;;;;;;;8.30;5.67;;;1.10;99.90;;;;;;5052953;28;20194;-85
2023/01/24 04:08:03;;;;;;;9.87;5.57;;;1.10;99.90;;;;;;5052852;28;20640;-85
2023/01/24 04:10:30;;;;;;;7.67;4.80;;;1.00;99.90;;;;;;5051533;28;20184;-85
2023/01/24 04:12:55;;;;;;;9.10;5.40;;;1.00;99.90;;;;;;5051635;28;20235;-85
2023/01/24 04:15:24;;;;;;;9.03;4.57;;;1.00;99.90;;;;;;5050450;28;20200;-86
2023/01/24 04:17:50;;;;;;;9.63;5.43;;;1.00;99.90;;;;;;5052718;28;20177;-85
2023/01/24 04:20:16;;;;;;;9.57;5.40;;;1.00;99.90;;;;;;5050992;28;20307;-85
2023/01/24 04:22:42;;;;;;;7.90;5.20;;;1.00;99.90;;;;;;5051595;28;20267;-85
2023/01/24 04:25:09;;;;;;;9.47;5.57;;;1.00;99.90;;;;;;5052467;28;20276;-85
2023/01/24 04:27:36;;;;;;;8.63;5.50;;;1.00;99.90;;;;;;5052738;28;20599;-85
2023/01/24 04:30:03;;;;;;;10.07;5.23;;;1.00;99.90;;;;;;5051133;28;20169;-85
2023/01/24 04:32:29;;;;;;;9.17;5.97;;;1.00;99.90;;;;;;5052381;28;20647;-85
2023/01/24 04:34:54;;;;;;;8.40;5.13;;;1.00;99.90;;;;;;5051086;28;20219;-85
2023/01/24 04:37:20;;;;;;;9.83;5.43;;;1.00;99.90;;;;;;5052550;28;20176;-85
2023/01/24 04:39:46;;;;;;;10.47;5.77;;;1.00;99.90;;;;;;5052565;28;20594;-85
2023/01/24 04:42:11;;;;;;;9.73;5.87;;;1.10;99.90;;;;;;5052109;28;20204;-85
2023/01/24 04:44:37;;;;;;;9.37;5.90;;;1.00;99.90;;;;;;5050876;28;20192;-85
2023/01/24 04:47:02;;;;;;;8.23;5.13;;;1.00;99.90;;;;;;5051144;28;20185;-85
2023/01/24 04:49:28;;;;;;;9.23;6.03;;;1.00;99.90;;;;;;5051015;28;20173;-85
2023/01/24 04:51:53;;;;;;;8.43;5.50;;;1.00;99.90;;;;;;5050864;28;20173;-85
2023/01/24 04:54:19;;;;;;;8.73;5.53;;;1.10;99.90;;;;;;5050646;28;20177;-84
2023/01/24 04:56:45;;;;;;;10.70;5.97;;;1.10;99.90;;;;;;5050919;28;20201;-86
2023/01/24 04:59:11;;;;;;;10.60;6.03;;;1.10;99.90;;;;;;5050820;28;20235;-85
2023/01/24 05:01:37;;;;;;;8.90;5.10;;;1.20;99.90;;;;;;5050691;28;20193;-85
2023/01/24 05:04:03;;;;;;;8.77;5.00;;;1.20;99.90;;;;;;5051910;28;20176;-86
2023/01/24 05:06:31;;;;;;;7.73;4.97;;;1.10;99.90;;;;;;5051983;28;20197;-85
2023/01/24 05:08:57;;;;;;;8.73;5.63;;;1.10;99.90;;;;;;5050838;28;20174;-85
2023/01/24 05:11:24;;;;;;;9.73;5.50;;;1.00;99.90;;;;;;5050778;28;20181;-85
2023/01/24 05:13:50;;;;;;;8.50;5.23;;;1.00;99.90;;;;;;5052249;28;20399;-85
2023/01/24 05:16:16;;;;;;;9.53;6.03;;;1.00;99.90;;;;;;5051889;28;20204;-85
2023/01/24 05:18:42;;;;;;;9.30;5.60;;;1.00;99.90;;;;;;5051755;28;20729;-85
2023/01/24 05:21:14;;;;;;;8.53;5.17;;;1.00;99.90;;;;;;5051748;28;20228;-85
2023/01/24 05:23:40;;;;;;;9.43;5.93;;;1.00;99.90;;;;;;5050807;28;20181;-86
2023/01/24 05:26:06;;;;;;;8.47;5.40;;;1.00;99.90;;;;;;5052227;28;20323;-85
2023/01/24 05:28:32;;;;;;;7.90;4.90;;;1.00;99.90;;;;;;5054392;28;20257;-85
2023/01/24 05:30:59;;;;;;;7.17;5.23;;;1.00;99.90;;;;;;5055434;28;20204;-85
2023/01/24 05:33:24;;;;;;;7.90;5.13;;;1.00;99.90;;;;;;5055812;28;20173;-85
2023/01/24 05:36:06;;;;;;;8.53;5.20;;;1.00;99.90;;;;;;5054666;28;20209;-85
2023/01/24 05:38:32;;;;;;;7.57;5.10;;;1.00;99.90;;;;;;5054443;28;20181;-85
2023/01/24 05:41:05;;;;;;;9.23;5.57;;;0.90;99.90;;;;;;5053905;28;20254;-85
2023/01/24 05:43:31;;;;;;;8.00;5.57;;;0.90;99.90;;;;;;5055431;28;20187;-85
2023/01/24 05:45:59;;;;;;;10.17;5.93;;;0.90;99.90;;;;;;5054176;28;20295;-85
2023/01/24 05:48:25;;;;;;;8.30;5.50;;;0.90;99.90;;;;;;5055764;28;20307;-85
2023/01/24 05:50:55;;;;;;;9.43;5.77;;;0.90;99.90;;;;;;5054087;28;20205;-85
2023/01/24 05:53:20;;;;;;;8.13;4.63;;;0.80;99.90;;;;;;5054224;28;20176;-85
2023/01/24 05:55:46;;;;;;;7.93;5.07;;;0.90;99.90;;;;;;5054014;28;20196;-85
2023/01/24 05:58:12;;;;;;;9.60;5.93;;;0.90;99.90;;;;;;5055412;28;20173;-85
2023/01/24 06:00:37;;;;;;;9.03;5.60;;;0.90;99.90;;;;;;5054148;28;20204;-85
2023/01/24 06:03:03;;;;;;;7.83;5.43;;;0.90;99.90;;;;;;5054130;28;20250;-85
2023/01/24 06:05:29;;;;;;;9.83;5.53;;;0.90;99.90;;;;;;5053829;28;20197;-85
2023/01/24 06:07:55;;;;;;;9.23;5.97;;;0.90;99.90;;;;;;5054947;28;20219;-84
2023/01/24 06:10:20;;;;;;;10.63;6.10;;;0.90;99.90;;;;;;5053328;28;20196;-84
2023/01/24 06:12:46;;;;;;;10.40;6.20;;;0.90;99.90;;;;;;5053521;28;20176;-84
2023/01/24 06:15:11;;;;;;;10.53;6.37;;;1.00;99.90;;;;;;5053338;28;20201;-84
2023/01/24 06:17:37;;;;;;;11.13;6.07;;;1.00;99.90;;;;;;5054881;28;20174;-85
2023/01/24 06:20:03;;;;;;;8.20;5.63;;;1.00;99.90;;;;;;5053362;28;20268;-85
2023/01/24 06:22:35;;;;;;;7.70;5.57;;;1.00;99.90;;;;;;5053333;28;20212;-84
2023/01/24 06:25:00;;;;;;;9.40;5.53;;;1.10;99.90;;;;;;5054645;28;20276;-84
2023/01/24 06:27:26;;;;;;;8.77;6.03;;;1.00;99.90;;;;;;5053071;28;20264;-84
2023/01/24 06:29:52;;;;;;;7.87;5.37;;;1.00;99.90;;;;;;5053351;28;20540;-84
2023/01/24 06:32:54;;;;;;;10.23;6.20;;;0.90;99.90;;;;;;5053114;28;20553;-84
2023/01/24 06:35:27;;;;;;;10.47;6.23;;;1.00;99.90;;;;;;5053065;28;20270;-84
2023/01/24 06:37:53;;;;;;;8.60;5.60;;;1.00;99.90;;;;;;5053274;28;20294;-84
2023/01/24 06:40:23;;;;;;;9.70;5.93;;;1.00;99.90;;;;;;5052953;28;20185;-84
2023/01/24 06:42:49;;;;;;;8.07;5.70;;;0.90;99.90;;;;;;5053267;28;20177;-84
2023/01/24 06:45:15;;;;;;;9.37;5.47;;;0.90;99.90;;;;;;5053167;28;20190;-84
2023/01/24 06:47:42;;;;;;;8.47;5.63;;;0.90;99.90;;;;;;5053039;28;20174;-87
2023/01/24 06:50:14;;;;;;;8.10;5.07;;;0.90;99.90;;;;;;5052555;28;20256;-85
2023/01/24 06:52:40;;;;;;;8.60;5.83;;;0.90;99.90;;;;;;5053107;28;20265;-83
2023/01/24 06:55:06;;;;;;;8.73;5.67;;;0.90;99.90;;;;;;5052789;28;20722;-85
2023/01/24 06:57:31;;;;;;;8.17;5.40;;;0.90;99.90;;;;;;5052803;28;20268;-84
2023/01/24 06:59:57;;;;;;;10.27;5.77;;;0.90;99.90;;;;;;5053607;28;20306;-83
2023/01/24 07:02:23;;;;;;;9.13;5.83;;;1.10;99.90;;;;;;5052748;28;20197;-83
2023/01/24 07:04:48;;;;;;;8.03;5.07;;;1.30;99.90;;;;;;5053975;28;20255;-83
2023/01/24 07:07:14;;;;;;;7.90;5.30;;;1.60;99.90;;;;;;5051159;28;20236;-83
2023/01/24 07:09:39;;;;;;;7.83;5.20;;;1.40;99.90;;;;;;5051809;28;20547;-82
2023/01/24 07:12:05;;;;;;;7.63;5.10;;;1.40;99.90;;;;;;5052352;28;20256;-83
2023/01/24 07:14:30;;;;;;;8.03;4.90;;;1.20;99.90;;;;;;5054539;28;20202;-82
2023/01/24 07:16:56;;;;;;;7.00;4.90;;;1.20;99.90;;;;;;5053147;28;20178;-81
2023/01/24 07:19:23;;;;;;;8.67;5.57;;;1.10;99.90;;;;;;5053585;28;20185;-81
2023/01/24 07:21:49;;;;;;;8.40;5.13;;;1.10;99.90;;;;;;5054134;28;20291;-82
2023/01/24 07:24:24;;;;;;;8.20;5.40;;;1.00;99.90;;;;;;5054705;28;20173;-82
2023/01/24 07:26:50;;;;;;;7.30;4.90;;;1.00;99.90;;;;;;5053482;28;20208;-82
2023/01/24 07:29:20;;;;;;;8.53;5.57;;;1.00;99.90;;;;;;5052448;28;20173;-84
2023/01/24 07:31:49;;;;;;;8.27;5.53;;;1.00;99.90;;;;;;5051833;28;20648;-83
2023/01/24 07:34:16;;;;;;;8.53;5.43;;;1.00;99.90;;;;;;5051760;28;20177;-85
2023/01/24 07:36:42;;;;;;;8.63;5.43;;;1.00;99.90;;;;;;5053259;28;20209;-85
2023/01/24 07:39:08;;;;;;;9.10;6.10;;;1.10;99.90;;;;;;5051985;28;20181;-85
2023/01/24 07:41:35;;;;;;;9.67;5.80;;;1.10;99.90;;;;;;5051740;28;20208;-85
2023/01/24 07:44:04;;;;;;;8.00;5.30;;;1.10;99.90;;;;;;5051916;28;20290;-84
2023/01/24 07:46:31;;;;;;;8.23;5.33;;;1.10;99.90;;;;;;5051821;28;20197;-83
2023/01/24 07:48:56;;;;;;;9.73;5.50;;;1.10;99.90;;;;;;5051950;28;20215;-82
2023/01/24 07:51:22;;;;;;;9.00;6.00;;;1.10;99.90;;;;;;5052908;28;20208;-83
2023/01/24 07:53:48;;;;;;;8.37;6.00;;;1.20;99.90;;;;;;5052076;28;20265;-82
2023/01/24 07:56:15;;;;;;;9.03;5.60;;;1.10;99.90;;;;;;5053020;28;20202;-82
2023/01/24 07:58:41;;;;;;;9.50;5.93;;;1.10;99.90;;;;;;5052985;28;20208;-84
2023/01/24 08:01:06;;;;;;;9.37;6.03;;;1.10;99.90;;;;;;5051214;28;20194;-83
2023/01/24 08:03:32;;;;;;;9.23;5.80;;;1.00;99.90;;;;;;5051613;28;20199;-82
2023/01/24 08:05:57;;;;;;;8.80;5.50;;;1.10;99.90;;;;;;5052608;28;20192;-82
2023/01/24 08:08:23;;;;;;;11.00;6.47;;;1.20;99.90;;;;;;5051489;28;20180;-83
2023/01/24 08:10:48;;;;;;;10.23;6.27;;;1.20;99.90;;;;;;5052385;28;20189;-84
2023/01/24 08:13:14;;;;;;;8.83;5.83;;;1.20;99.90;;;;;;5051317;28;20216;-84
2023/01/24 08:15:40;;;;;;;11.03;6.00;;;1.20;99.90;;;;;;5052460;28;20209;-81
2023/01/24 08:18:05;;;;;;;8.90;5.60;;;1.20;99.90;;;;;;5051255;28;20181;-83
2023/01/24 08:20:31;;;;;;;8.97;6.13;;;1.30;99.90;;;;;;5052276;28;20276;-84
2023/01/24 08:22:57;;;;;;;9.40;5.93;;;1.30;99.90;;;;;;5052557;28;20180;-83
2023/01/24 08:25:24;;;;;;;8.57;5.77;;;1.40;99.90;;;;;;5052343;28;20284;-84
2023/01/24 08:27:50;;;;;;;8.67;5.50;;;1.40;99.90;;;;;;5052407;28;20202;-83
2023/01/24 08:30:16;;;;;;;7.40;5.03;;;1.50;99.90;;;;;;5051990;28;20209;-84
2023/01/24 08:32:41;;;;;;;8.20;5.20;;;1.50;99.90;;;;;;5051043;28;20636;-84
2023/01/24 08:35:07;;;;;;;8.47;5.37;;;1.50;99.90;;;;;;5053347;28;20520;-84
2023/01/24 08:37:33;;;;;;;7.63;5.30;;;1.50;99.90;;;;;;5052243;28;20630;-84
2023/01/24 08:39:58;;;;;;;8.43;5.63;;;1.50;99.90;;;;;;5052029;28;20227;-83
2023/01/24 08:42:24;;;;;;;8.57;5.70;;;1.60;99.90;;;;;;5051936;28;20198;-84
2023/01/24 08:44:51;;;;;;;7.77;5.30;;;1.60;99.90;;;;;;5050781;28;20224;-85
2023/01/24 08:47:16;;;;;;;8.30;5.40;;;1.60;99.90;;;;;;5051069;28;20175;-86
2023/01/24 08:49:42;;;;;;;8.53;5.13;;;1.60;99.90;;;;;;5050406;28;20178;-84
2023/01/24 08:52:08;;;;;;;7.20;5.00;;;1.60;99.90;;;;;;5051004;28;20181;-84
2023/01/24 08:54:35;;;;;;;7.60;5.23;;;1.60;99.90;;;;;;5050778;28;20193;-83
2023/01/24 08:57:02;;;;;;;8.40;5.53;;;1.60;99.90;;;;;;5052006;28;20177;-83
2023/01/24 08:59:28;;;;;;;14.30;8.50;;;1.60;99.90;;;;;;5050582;28;20178;-84
2023/01/24 09:01:53;;;;;;;8.17;5.33;;;1.60;99.90;;;;;;5053756;28;20205;-83
2023/01/24 09:04:19;;;;;;;8.63;5.80;;;1.60;99.90;;;;;;5055190;28;20636;-85
2023/01/24 09:06:44;;;;;;;11.83;7.53;;;1.60;99.90;;;;;;5056104;28;20172;-83
2023/01/24 09:09:10;;;;;;;10.00;5.77;;;1.70;99.90;;;;;;5054733;28;20173;-83
2023/01/24 09:11:36;;;;;;;6.83;5.27;;;1.70;99.90;;;;;;5054582;28;20173;-83
2023/01/24 09:14:01;;;;;;;9.00;6.67;;;1.70;99.90;;;;;;5055891;28;20216;-84
2023/01/24 09:16:27;;;;;;;8.77;5.43;;;1.50;99.90;;;;;;5054608;28;20193;-84
2023/01/24 09:18:54;;;;;;;8.50;5.90;;;1.60;99.90;;;;;;5055994;28;20184;-84
2023/01/24 09:21:20;;;;;;;7.83;5.73;;;1.60;99.90;;;;;;5055631;28;20201;-84
2023/01/24 09:23:46;;;;;;;9.20;6.30;;;1.60;99.90;;;;;;5054712;28;20599;-84
2023/01/24 09:26:12;;;;;;;9.93;6.87;;;1.50;99.90;;;;;;5055637;28;20200;-84
2023/01/24 09:28:37;;;;;;;7.30;5.20;;;1.60;99.90;;;;;;5054388;28;20547;-84
2023/01/24 09:31:06;;;;;;;9.00;6.47;;;1.60;99.90;;;;;;5054099;28;20174;-83
2023/01/24 09:33:32;;;;;;;8.20;6.37;;;1.70;99.90;;;;;;5054584;28;20185;-84
2023/01/24 09:36:00;;;;;;;7.87;5.10;;;1.70;99.90;;;;;;5055453;28;20587;-83
2023/01/24 09:38:27;;;;;;;7.67;5.77;;;1.70;99.90;;;;;;5055552;28;20177;-83
2023/01/24 09:41:11;;;;;;;7.63;5.23;;;1.80;99.90;;;;;;5054260;28;20201;-84
2023/01/24 09:44:01;;;;;;;10.90;7.50;;;1.80;99.90;;;;;;5054478;28;20178;-84
2023/01/24 09:46:36;;;;;;;8.67;6.10;;;1.80;99.90;;;;;;5054415;28;20218;-83
2023/01/24 09:49:21;;;;;;;7.17;5.57;;;1.90;99.90;;;;;;5054274;28;20173;-84
2023/01/24 09:51:53;;;;;;;7.93;5.23;;;1.90;99.90;;;;;;5054240;28;20217;-84
2023/01/24 09:54:46;;;;;;;8.40;5.57;;;2.00;99.90;;;;;;5055426;28;20184;-84
2023/01/24 09:57:31;;;;;;;8.63;6.60;;;1.90;99.90;;;;;;5054032;28;20576;-82
2023/01/24 10:00:10;;;;;;;10.47;7.23;;;1.80;99.90;;;;;;5053312;28;20643;-85
2023/01/24 10:02:36;;;;;;;10.27;7.63;;;1.90;99.90;;;;;;5053874;28;20201;-84
2023/01/24 10:05:02;;;;;;;10.23;7.20;;;1.90;99.90;;;;;;5053571;28;20196;-84
2023/01/24 10:07:52;;;;;;;13.23;9.17;;;1.90;99.90;;;;;;5053624;28;20548;-84
2023/01/24 10:10:45;;;;;;;8.40;5.53;;;2.00;99.90;;;;;;5054721;28;20193;-83
2023/01/24 10:13:29;;;;;;;9.33;6.10;;;2.10;99.90;;;;;;5053493;28;20194;-83
2023/01/24 10:15:57;;;;;;;8.40;5.40;;;2.00;99.90;;;;;;5053357;28;20617;-83
2023/01/24 10:18:34;;;;;;;9.10;5.57;;;1.90;99.90;;;;;;5054647;28;20177;-83
2023/01/24 10:21:27;;;;;;;6.23;4.60;;;1.80;99.90;;;;;;5054756;28;20511;-83
2023/01/24 10:23:58;;;;;;;6.87;4.83;;;1.90;99.90;;;;;;5054694;28;20172;-83
2023/01/24 10:26:47;;;;;;;5.97;4.47;;;2.00;99.90;;;;;;5053418;28;20236;-84
2023/01/24 10:29:24;;;;;;;7.20;4.90;;;2.00;99.90;;;;;;5054549;28;20568;-83
2023/01/24 10:32:01;;;;;;;6.60;4.77;;;2.10;99.90;;;;;;5053426;28;20177;-83
2023/01/24 10:34:42;;;;;;;7.00;4.90;;;2.20;99.90;;;;;;5053130;28;20197;-84
2023/01/24 10:37:31;;;;;;;7.63;5.30;;;2.30;99.90;;;;;;5052996;28;20185;-83
2023/01/24 10:39:58;;;;;;;7.50;5.00;;;2.20;99.90;;;;;;5053599;28;20206;-84
2023/01/24 10:42:28;;;;;;;7.60;5.00;;;2.10;99.90;;;;;;5052912;28;20206;-83
2023/01/24 10:44:59;;;;;;;7.70;4.93;;;2.10;99.90;;;;;;5053060;28;20197;-83
2023/01/24 10:47:56;;;;;;;7.37;5.00;;;2.20;99.90;;;;;;5052953;28;20181;-83
2023/01/24 10:50:23;;;;;;;7.27;5.27;;;2.30;99.90;;;;;;5054441;28;20642;-84
2023/01/24 10:52:49;;;;;;;6.63;4.83;;;2.30;99.90;;;;;;5054606;28;20698;-84
2023/01/24 10:55:36;;;;;;;9.13;5.53;;;2.40;99.90;;;;;;5053642;28;20198;-83
2023/01/24 10:58:23;;;;;;;8.77;5.37;;;2.30;99.90;;;;;;5054052;28;20178;-84
2023/01/24 11:01:03;;;;;;;7.13;5.10;;;2.20;99.90;;;;;;5042613;28;20213;-83
2023/01/24 11:03:34;;;;;;;6.40;4.57;;;2.20;99.90;;;;;;5053623;28;20268;-81
2023/01/24 11:06:01;;;;;;;7.70;4.77;;;2.30;99.90;;;;;;5053877;28;20232;-81
2023/01/24 11:08:37;;;;;;;8.63;6.33;;;2.40;99.90;;;;;;5054872;28;20215;-80
2023/01/24 11:11:16;;;;;;;8.73;5.23;;;2.30;99.90;;;;;;5054543;28;20184;-81
2023/01/24 11:13:43;;;;;;;946.63;318.07;;;2.30;99.90;;;;;;5054333;28;20687;-83
2023/01/24 11:16:15;;;;;;;474.03;163.87;;;3.80;99.90;;;;;;5053847;28;20206;-83
2023/01/24 11:18:47;;;;;;;10.20;7.37;;;4.80;99.90;;;;;;5054843;28;20170;-81
2023/01/24 11:21:15;;;;;;;16.77;10.23;;;4.20;99.90;;;;;;5055384;28;20232;-83
2023/01/24 11:23:42;;;;;;;15.23;10.47;;;3.90;99.90;;;;;;5055025;28;20182;-81
2023/01/24 11:27:03;;;;;;;8.40;6.70;;;3.50;99.90;;;;;;5056262;28;20282;-81
2023/01/24 11:29:29;;;;;;;11.33;7.33;;;3.30;99.90;;;;;;5030477;28;20208;-82
2023/01/24 11:31:59;;;;;;;10.30;7.07;;;2.90;99.90;;;;;;5053469;28;20175;-82
2023/01/24 11:34:43;;;;;;;12.13;8.17;;;2.90;99.90;;;;;;5054364;28;20182;-84
2023/01/24 11:37:24;;;;;;;8.87;6.13;;;2.80;99.90;;;;;;5053429;28;20179;-83
2023/01/24 11:40:11;;;;;;;16.63;11.10;;;2.70;99.90;;;;;;5052076;28;20245;-81
2023/01/24 11:42:53;;;;;;;8.10;5.70;;;2.50;99.90;;;;;;5052120;28;20197;-81
2023/01/24 11:45:24;;;;;;;24.13;14.47;;;2.50;99.90;;;;;;5053433;28;20196;-85
2023/01/24 11:48:01;;;;;;;33.10;18.33;;;2.90;99.90;;;;;;5051880;28;20224;-84
2023/01/24 11:50:26;;;;;;;65.90;32.37;;;3.70;99.90;;;;;;5052878;28;20175;-83
2023/01/24 11:53:29;;;;;;;13.97;8.30;;;4.30;99.90;;;;;;5054042;28;20241;-80
2023/01/24 11:55:54;;;;;;;19.27;11.40;;;4.10;99.90;;;;;;5052931;28;20201;-80
2023/01/24 11:58:39;;;;;;;7.77;5.07;;;3.80;99.90;;;;;;5053062;28;20193;-81
2023/01/24 12:01:17;;;;;;;14.67;9.30;;;3.40;99.90;;;;;;5052045;28;20207;-80
2023/01/24 12:03:48;;;;;;;7.93;5.53;;;3.40;99.90;;;;;;5052793;28;20298;-80
2023/01/24 12:06:30;;;;;;;8.87;6.70;;;3.00;99.90;;;;;;5053623;28;20196;-80
2023/01/24 12:09:25;;;;;;;8.67;5.10;;;3.00;99.90;;;;;;5053075;28;20175;-80
2023/01/24 12:12:05;;;;;;;7.27;5.07;;;2.80;99.90;;;;;;5052550;28;20188;-80
2023/01/24 12:14:45;;;;;;;7.13;4.87;;;2.80;99.90;;;;;;5053548;28;20283;-80
2023/01/24 12:17:49;;;;;;;7.07;5.83;;;2.70;99.90;;;;;;5052695;28;20652;-80
2023/01/24 12:20:28;;;;;;;7.90;5.20;;;2.60;99.90;;;;;;5014947;28;20256;-80
2023/01/24 12:22:57;;;;;;;7.20;5.40;;;2.80;99.90;;;;;;5050798;28;20596;-80
2023/01/24 12:25:32;;;;;;;7.23;4.90;;;2.60;99.90;;;;;;5053450;28;20190;-78
2023/01/24 12:28:04;;;;;;;8.17;5.67;;;2.70;99.90;;;;;;5052361;28;20186;-79
2023/01/24 12:30:49;;;;;;;8.20;5.83;;;2.60;99.90;;;;;;5052158;28;20202;-80
2023/01/24 12:33:34;;;;;;;8.60;6.03;;;2.70;99.90;;;;;;5052169;28;20186;-80
2023/01/24 12:36:11;;;;;;;8.17;5.73;;;2.70;99.90;;;;;;5052807;28;20204;-80
2023/01/24 12:38:41;;;;;;;14.30;9.47;;;2.60;99.90;;;;;;5053157;28;20794;-79
2023/01/24 12:41:35;;;;;;;8.37;6.40;;;2.60;99.90;;;;;;5052955;28;20207;-80
2023/01/24 12:44:22;;;;;;;7.03;5.23;;;2.60;99.90;;;;;;5051611;28;20182;-80
2023/01/24 12:47:15;;;;;;;8.23;6.37;;;2.60;99.90;;;;;;5052841;28;20652;-80
2023/01/24 12:50:00;;;;;;;9.53;6.20;;;2.60;99.90;;;;;;5051553;28;20228;-80
2023/01/24 12:52:47;;;;;;;6.90;4.87;;;2.70;99.90;;;;;;5051834;28;20277;-80
2023/01/24 12:55:19;;;;;;;9.20;5.00;;;2.70;99.90;;;;;;5051795;28;20284;-81
2023/01/24 12:57:49;;;;;;;7.63;5.20;;;2.70;99.90;;;;;;5053195;28;20183;-81
2023/01/24 13:00:16;;;;;;;8.40;5.53;;;2.70;99.90;;;;;;5051932;28;20238;-80
2023/01/24 13:02:44;;;;;;;8.23;5.20;;;2.70;99.90;;;;;;5051953;28;20297;-80
2023/01/24 13:05:28;;;;;;;8.47;5.70;;;2.80;99.90;;;;;;5051889;28;20198;-80
2023/01/24 13:08:06;;;;;;;7.20;5.10;;;2.70;99.90;;;;;;5051889;28;20175;-80
2023/01/24 13:10:46;;;;;;;8.43;5.57;;;2.70;99.90;;;;;;5053014;28;20175;-80
2023/01/24 13:13:21;;;;;;;10.93;7.17;;;2.60;99.90;;;;;;5051914;28;20202;-80
2023/01/24 13:16:26;;;;;;;8.37;6.23;;;2.60;99.90;;;;;;5051709;28;20697;-81
2023/01/24 13:19:05;;;;;;;8.83;5.50;;;2.50;99.90;;;;;;5032133;28;20188;-79
2023/01/24 13:21:46;;;;;;;8.97;6.40;;;2.60;99.90;;;;;;5048697;28;20236;-80
2023/01/24 13:24:30;;;;;;;8.40;5.60;;;2.60;99.90;;;;;;5050679;28;20656;-80
2023/01/24 13:27:14;;;;;;;9.40;6.37;;;2.70;99.90;;;;;;5050692;28;20268;-80
2023/01/24 13:29:51;;;;;;;19.00;14.30;;;2.70;99.90;;;;;;5051192;28;20207;-80
2023/01/24 13:32:20;;;;;;;11.43;8.50;;;2.50;99.90;;;;;;5052341;28;20183;-79
2023/01/24 13:34:56;;;;;;;10.40;7.07;;;2.50;99.90;;;;;;5052426;28;20242;-82
2023/01/24 13:37:31;;;;;;;9.87;7.07;;;2.40;99.90;;;;;;5052781;28;20205;-81
2023/01/24 13:40:14;;;;;;;8.00;5.90;;;2.50;99.90;;;;;;5051100;28;20182;-81
2023/01/24 13:42:40;;;;;;;9.37;5.90;;;2.50;99.90;;;;;;5052050;28;20211;-81
2023/01/24 13:45:30;;;;;;;7.07;5.10;;;2.50;99.90;;;;;;5052279;28;20246;-80
2023/01/24 13:47:58;;;;;;;10.20;7.27;;;2.50;99.90;;;;;;5052430;28;20182;-80